createdAt,value
2023-04-11T00:03:38.956Z,69.10
2023-04-11T00:08:32.069Z,69.06
2023-04-11T00:13:26.783Z,69.09
2023-04-11T00:18:19.646Z,69.30
2023-04-11T00:23:13.906Z,69.33
2023-04-11T00:28:06.613Z,69.33
2023-04-11T00:32:59.519Z,69.34
2023-04-11T00:37:56.347Z,69.52
2023-04-11T00:42:49.703Z,69.55
2023-04-11T00:47:43.218Z,69.34
2023-04-11T00:52:38.209Z,69.52
2023-04-11T00:57:31.005Z,69.63
2023-04-11T01:02:25.200Z,69.73
2023-04-11T01:07:20.982Z,70.16
2023-04-11T01:12:15.896Z,70.09
2023-04-11T01:17:12.692Z,70.20
2023-04-11T01:22:06.221Z,70.16
2023-04-11T01:26:58.959Z,70.15
2023-04-11T01:31:55.171Z,70.40
2023-04-11T01:36:48.957Z,70.36
2023-04-11T01:41:43.028Z,70.41
2023-04-11T01:46:36.262Z,70.33
2023-04-11T01:51:29.081Z,70.49
2023-04-11T01:56:21.804Z,70.47
2023-04-11T02:01:14.605Z,70.88
2023-04-11T02:06:07.603Z,70.74
2023-04-11T02:11:00.320Z,70.75
2023-04-11T02:15:53.067Z,70.96
2023-04-11T02:20:45.867Z,70.98
2023-04-11T02:25:39.172Z,71.19
2023-04-11T02:30:31.916Z,71.23
2023-04-11T02:35:24.619Z,71.46
2023-04-11T02:40:17.320Z,71.41
2023-04-11T02:45:10.341Z,71.27
2023-04-11T02:50:03.505Z,71.40
2023-04-11T02:55:00.978Z,71.91
2023-04-11T02:59:54.089Z,71.65
2023-04-11T03:04:52.384Z,71.68
2023-04-11T03:09:45.467Z,71.65
2023-04-11T03:14:38.266Z,72.26
2023-04-11T03:19:31.014Z,71.72
2023-04-11T03:24:25.581Z,72.09
2023-04-11T03:29:18.383Z,72.06
2023-04-11T03:34:26.289Z,72.11
2023-04-11T03:39:21.798Z,72.23
2023-04-11T03:44:14.943Z,72.47
2023-04-11T03:49:09.805Z,72.07
2023-04-11T03:54:02.558Z,72.11
2023-04-11T03:58:59.213Z,72.37
2023-04-11T04:03:55.435Z,72.44
2023-04-11T04:08:48.547Z,72.54
2023-04-11T04:13:42.022Z,72.35
2023-04-11T04:18:38.050Z,72.74
2023-04-11T04:23:32.619Z,72.96
2023-04-11T04:28:48.443Z,72.86
2023-04-11T04:33:46.142Z,72.92
2023-04-11T04:38:45.777Z,72.92
2023-04-11T04:43:42.028Z,72.80
2023-04-11T04:48:41.450Z,73.12
2023-04-11T04:53:38.799Z,73.45
2023-04-11T04:58:34.319Z,73.39
2023-04-11T05:03:29.075Z,73.47
2023-04-11T05:08:23.278Z,73.53
2023-04-11T05:13:16.899Z,73.78
2023-04-11T05:18:09.851Z,73.89
2023-04-11T05:23:02.665Z,74.21
2023-04-11T05:27:57.104Z,74.39
2023-04-11T05:32:52.584Z,74.31
2023-04-11T05:37:46.213Z,74.77
2023-04-11T05:42:39.102Z,75.69
2023-04-11T05:47:32.465Z,76.37
2023-04-11T05:52:25.382Z,76.46
2023-04-11T05:57:18.276Z,77.53
2023-04-11T06:02:11.189Z,77.47
2023-04-11T06:07:04.505Z,77.76
2023-04-11T06:11:57.709Z,78.00
2023-04-11T06:16:50.445Z,78.23
2023-04-11T06:21:43.177Z,78.03
2023-04-11T06:26:37.497Z,78.07
2023-04-11T06:31:30.579Z,77.47
2023-04-11T06:36:23.734Z,77.30
2023-04-11T06:41:16.502Z,75.77
2023-04-11T06:46:09.395Z,74.60
2023-04-11T06:51:02.210Z,74.22
2023-04-11T06:55:54.913Z,74.36
2023-04-11T07:00:47.650Z,74.16
2023-04-11T07:05:40.550Z,73.65
2023-04-11T07:10:33.257Z,73.03
2023-04-11T07:15:25.947Z,72.63
2023-04-11T07:20:21.905Z,69.51
2023-04-11T07:25:14.724Z,63.22
2023-04-11T07:30:08.090Z,59.45
2023-04-11T07:35:00.919Z,55.33
2023-04-11T07:39:53.653Z,54.38
2023-04-11T07:44:46.780Z,52.28
2023-04-11T07:49:39.570Z,51.22
2023-04-11T07:54:32.774Z,49.77
2023-04-11T07:59:25.684Z,47.39
2023-04-11T08:04:18.566Z,45.98
2023-04-11T08:09:11.512Z,45.72
2023-04-11T08:14:04.519Z,45.46
2023-04-11T08:18:59.289Z,44.92
2023-04-11T08:23:52.178Z,44.64
2023-04-11T08:28:45.191Z,42.82
2023-04-11T08:33:38.207Z,42.41
2023-04-11T08:38:31.001Z,43.81
2023-04-11T08:43:23.863Z,42.96
2023-04-11T08:48:17.112Z,41.54
2023-04-11T08:53:09.867Z,39.83
2023-04-11T08:58:03.875Z,39.51
2023-04-11T09:02:56.670Z,39.49
2023-04-11T09:07:51.722Z,37.26
2023-04-11T09:12:45.156Z,37.58
2023-04-11T09:17:43.771Z,38.16
2023-04-11T09:22:37.977Z,39.94
2023-04-11T09:27:31.187Z,41.07
2023-04-11T09:32:31.371Z,40.94
2023-04-11T09:37:25.411Z,40.84
2023-04-11T09:42:24.885Z,39.40
2023-04-11T09:47:17.600Z,38.59
2023-04-11T09:52:10.600Z,39.77
2023-04-11T09:57:04.265Z,38.74
2023-04-11T10:01:59.297Z,38.51
2023-04-11T10:06:59.782Z,37.89
2023-04-11T10:11:52.883Z,35.06
2023-04-11T10:17:05.552Z,34.46
2023-04-11T10:21:58.314Z,33.45
2023-04-11T10:26:59.329Z,29.84
2023-04-11T10:32:10.818Z,27.99
2023-04-11T10:37:06.279Z,27.26
2023-04-11T10:42:18.999Z,26.65
2023-04-11T10:47:17.984Z,25.89
2023-04-11T10:52:18.410Z,25.79
2023-04-11T10:57:11.337Z,26.97
2023-04-11T11:02:04.808Z,27.72
2023-04-11T11:06:57.988Z,28.36
2023-04-11T11:12:09.787Z,30.03
2023-04-11T11:17:03.268Z,29.30
2023-04-11T11:21:56.738Z,28.19
2023-04-11T11:26:52.846Z,28.41
2023-04-11T11:31:46.780Z,28.01
2023-04-11T11:36:44.749Z,29.75
2023-04-11T11:41:41.803Z,30.89
2023-04-11T11:46:35.791Z,31.90
2023-04-11T11:51:28.903Z,32.21
2023-04-11T11:56:22.064Z,33.08
2023-04-11T12:01:17.888Z,33.25
2023-04-11T12:06:11.965Z,34.76
2023-04-11T12:11:11.707Z,36.22
2023-04-11T12:16:04.732Z,37.36
2023-04-11T12:20:58.692Z,38.09
2023-04-11T12:25:51.601Z,38.76
2023-04-11T12:30:44.403Z,39.60
2023-04-11T12:35:37.742Z,39.62
2023-04-11T12:40:30.733Z,39.74
2023-04-11T12:45:23.829Z,39.85
2023-04-11T12:50:16.994Z,40.16
2023-04-11T12:55:10.761Z,40.90
2023-04-11T13:00:10.924Z,41.49
2023-04-11T13:05:06.683Z,41.59
2023-04-11T13:09:59.463Z,41.47
2023-04-11T13:14:52.240Z,41.32
2023-04-11T13:19:45.446Z,40.67
2023-04-11T13:24:38.275Z,40.77
2023-04-11T13:29:30.971Z,40.52
2023-04-11T13:34:23.723Z,40.09
2023-04-11T13:39:17.933Z,40.11
2023-04-11T13:44:10.945Z,40.15
2023-04-11T13:49:05.593Z,39.95
2023-04-11T13:53:58.321Z,39.91
2023-04-11T13:58:52.009Z,39.67
2023-04-11T14:03:44.781Z,39.69
2023-04-11T14:08:37.939Z,39.86
2023-04-11T14:13:30.937Z,39.48
2023-04-11T14:18:24.316Z,39.82
2023-04-11T14:23:17.825Z,40.01
2023-04-11T14:28:10.720Z,40.50
2023-04-11T14:33:03.413Z,40.94
2023-04-11T14:37:58.549Z,40.99
2023-04-11T14:42:51.469Z,41.14
2023-04-11T14:47:44.234Z,41.17
2023-04-11T14:52:37.383Z,41.10
2023-04-11T14:57:46.507Z,41.83
2023-04-11T15:02:39.456Z,41.83
2023-04-11T15:07:32.256Z,42.45
2023-04-11T15:12:25.109Z,42.45
2023-04-11T15:17:17.941Z,42.38
2023-04-11T15:22:10.798Z,42.56
2023-04-11T15:27:03.879Z,42.49
2023-04-11T15:31:56.601Z,42.40
2023-04-11T15:36:49.359Z,42.50
2023-04-11T15:41:42.502Z,42.95
2023-04-11T15:46:35.762Z,43.29
2023-04-11T15:51:29.292Z,43.34
2023-04-11T15:56:22.496Z,43.52
2023-04-11T16:01:25.814Z,44.09
2023-04-11T16:06:20.215Z,44.31
2023-04-11T16:11:13.104Z,44.77
2023-04-11T16:16:08.409Z,45.48
2023-04-11T16:21:01.305Z,45.76
2023-04-11T16:25:54.080Z,45.95
2023-04-11T16:30:50.187Z,46.07
2023-04-11T16:35:43.116Z,46.37
2023-04-11T16:40:35.964Z,46.86
2023-04-11T16:45:29.108Z,47.41
2023-04-11T16:50:22.700Z,48.09
2023-04-11T16:55:15.563Z,48.76
2023-04-11T17:00:11.528Z,49.24
2023-04-11T17:05:04.898Z,49.85
2023-04-11T17:09:57.951Z,50.17
2023-04-11T17:14:52.671Z,50.76
2023-04-11T17:19:45.463Z,50.88
2023-04-11T17:24:38.217Z,51.56
2023-04-11T17:29:31.266Z,51.96
2023-04-11T17:34:24.080Z,52.27
2023-04-11T17:39:19.760Z,52.62
2023-04-11T17:44:12.597Z,53.20
2023-04-11T17:49:05.427Z,53.65
2023-04-11T17:53:58.727Z,54.02
2023-04-11T17:58:51.858Z,54.39
2023-04-11T18:03:44.807Z,54.73
2023-04-11T18:08:50.309Z,55.19
2023-04-11T18:13:45.919Z,55.66
2023-04-11T18:18:40.122Z,56.06
2023-04-11T18:23:32.856Z,56.31
2023-04-11T18:28:25.649Z,56.65
2023-04-11T18:33:19.688Z,56.91
2023-04-11T18:38:13.584Z,57.38
2023-04-11T18:43:09.111Z,57.65
2023-04-11T18:48:02.500Z,57.94
2023-04-11T18:52:57.949Z,58.20
2023-04-11T18:57:58.637Z,58.60
2023-04-11T19:02:53.296Z,58.78
2023-04-11T19:07:46.916Z,58.90
2023-04-11T19:12:39.851Z,58.99
2023-04-11T19:17:32.633Z,59.35
2023-04-11T19:22:25.350Z,59.72
2023-04-11T19:27:18.551Z,59.59
2023-04-11T19:32:11.718Z,60.01
2023-04-11T19:37:04.538Z,60.24
2023-04-11T19:41:57.612Z,60.28
2023-04-11T19:46:50.477Z,60.44
2023-04-11T19:51:43.185Z,60.79
2023-04-11T19:56:37.448Z,60.79
2023-04-11T20:01:32.424Z,61.05
2023-04-11T20:06:25.253Z,61.31
2023-04-11T20:11:18.041Z,61.35
2023-04-11T20:16:11.634Z,61.68
2023-04-11T20:21:06.398Z,61.64
2023-04-11T20:25:59.122Z,61.95
2023-04-11T20:30:52.217Z,62.30
2023-04-11T20:35:44.947Z,61.96
2023-04-11T20:40:38.956Z,62.38
2023-04-11T20:45:33.499Z,62.87
2023-04-11T20:50:30.986Z,62.86
2023-04-11T20:55:25.478Z,63.28
2023-04-11T21:00:18.687Z,63.23
2023-04-11T21:05:12.059Z,63.62
2023-04-11T21:10:06.753Z,63.81
2023-04-11T21:15:00.368Z,63.97
2023-04-11T21:19:53.133Z,64.06
2023-04-11T21:24:45.868Z,64.03
2023-04-11T21:29:38.563Z,64.24
2023-04-11T21:34:31.226Z,64.50
2023-04-11T21:39:24.225Z,64.67
2023-04-11T21:44:16.943Z,64.69
2023-04-11T21:49:10.019Z,64.78
2023-04-11T21:54:04.572Z,64.98
2023-04-11T21:58:57.241Z,65.16
2023-04-11T22:03:50.589Z,65.21
2023-04-11T22:08:50.480Z,65.51
2023-04-11T22:13:46.695Z,66.26
2023-04-11T22:18:49.145Z,66.62
2023-04-11T22:23:44.818Z,66.58
2023-04-11T22:28:38.282Z,66.61
2023-04-11T22:33:31.011Z,66.49
2023-04-11T22:38:24.482Z,66.48
2023-04-11T22:43:17.265Z,66.59
2023-04-11T22:48:10.153Z,66.67
2023-04-11T22:53:03.192Z,66.48
2023-04-11T22:57:58.072Z,66.41
2023-04-11T23:02:51.149Z,66.60
2023-04-11T23:07:44.039Z,66.86
2023-04-11T23:12:37.393Z,66.92
2023-04-11T23:17:30.225Z,67.06
2023-04-11T23:22:23.688Z,67.38
2023-04-11T23:27:17.215Z,67.43
2023-04-11T23:32:09.897Z,67.59
2023-04-11T23:37:02.617Z,67.63
2023-04-11T23:41:55.300Z,67.91
2023-04-11T23:46:47.972Z,68.15
2023-04-11T23:51:40.679Z,67.95
2023-04-11T23:56:33.445Z,68.21
